Time;durP1;ratioP1;P1;durP2;ratioP2;P2;SDS_P1;SDS_P2;PMS_P1;PMS_P2;Temp;Humidity;BMP_temperature;BMP_pressure;BME280_temperature;BME280_humidity;BME280_pressure;Samples;Min_cycle;Max_cycle;Signal;HPM_P1;HPM_P2
2022/12/18 10:33:56;;;;;;;17.33;10.32;;;;;;;7.30;100.00;102564.13;5109485;27;20394;-81
2022/12/18 10:36:25;;;;;;;13.55;8.68;;;;;;;7.61;99.37;102571.66;5109452;28;20054;-82
2022/12/18 10:38:53;;;;;;;13.90;9.00;;;;;;;7.77;97.80;102564.94;5109298;28;20562;-82
2022/12/18 10:41:22;;;;;;;12.30;8.55;;;;;;;7.89;96.90;102570.59;5109738;28;20421;-81
2022/12/18 10:44:16;;;;;;;11.55;8.30;;;;;;;8.07;95.75;102577.25;5109635;28;20050;-82
2022/12/18 10:46:46;;;;;;;12.82;7.78;;;;;;;8.01;94.99;102573.50;5109782;28;20059;-82
2022/12/18 10:49:25;;;;;;;11.20;7.75;;;;;;;7.89;92.84;102567.88;5103277;28;20063;-80
2022/12/18 10:52:14;;;;;;;23.00;13.93;;;;;;;8.24;89.68;102572.16;5092863;28;20063;-80
2022/12/18 10:55:16;;;;;;;13.48;8.05;;;;;;;8.32;90.13;102574.66;5088018;28;20067;-80
2022/12/18 10:57:44;;;;;;;12.73;7.28;;;;;;;8.29;91.02;102572.38;5092237;28;20628;-80
2022/12/18 11:00:24;;;;;;;15.07;7.63;;;;;;;7.97;90.82;102574.94;5094214;28;20036;-81
2022/12/18 11:02:52;;;;;;;11.88;7.30;;;;;;;7.85;91.45;102557.56;5109347;28;20048;-81
2022/12/18 11:05:36;;;;;;;11.63;7.47;;;;;;;7.87;93.95;102559.03;5108182;28;20052;-80
2022/12/18 11:08:04;;;;;;;12.13;7.72;;;;;;;7.86;94.81;102564.72;5108502;28;20047;-82
2022/12/18 11:10:40;;;;;;;13.35;7.82;;;;;;;8.04;96.02;102543.09;5094428;28;20063;-82
2022/12/18 11:13:24;;;;;;;12.95;7.85;;;;;;;7.94;92.03;102546.22;5107897;28;20055;-86
2022/12/18 11:15:52;;;;;;;10.85;7.32;;;;;;;8.20;97.27;102543.63;5109119;28;20430;-88
2022/12/18 11:18:33;;;;;;;10.88;7.88;;;;;;;8.39;92.62;102543.78;5107011;28;20474;-87
2022/12/18 11:21:11;;;;;;;11.80;7.53;;;;;;;8.16;93.78;102542.41;5108955;28;20047;-88
2022/12/18 11:23:49;;;;;;;12.95;9.00;;;;;;;8.40;90.45;102545.47;5107718;28;20059;-89
2022/12/18 11:26:18;;;;;;;13.30;7.35;;;;;;;8.34;91.98;102534.38;5107709;28;20051;-87
2022/12/18 11:29:07;;;;;;;11.48;7.70;;;;;;;8.63;90.96;102549.56;5107304;28;20502;-87
2022/12/18 11:31:35;;;;;;;14.10;8.40;;;;;;;8.71;92.41;102541.13;5107398;28;20050;-89
2022/12/18 11:34:31;;;;;;;14.07;8.75;;;;;;;8.64;93.31;102543.09;5108729;28;20047;-86
2022/12/18 11:37:03;;;;;;;13.60;8.60;;;;;;;8.49;95.06;102535.16;5107374;28;20055;-88
2022/12/18 11:39:35;;;;;;;15.73;8.98;;;;;;;8.22;97.38;102525.19;5106914;28;20044;-88
2022/12/18 11:42:21;;;;;;;14.38;8.45;;;;;;;8.42;95.41;102532.44;5108727;28;20036;-87
2022/12/18 11:45:10;;;;;;;13.05;8.45;;;;;;;8.55;94.81;102535.13;5097314;28;20055;-88
2022/12/18 11:48:06;;;;;;;11.82;7.97;;;;;;;8.45;96.00;102526.53;5094725;28;20050;-88
2022/12/18 11:50:52;;;;;;;144.32;48.53;;;;;;;8.77;91.86;102528.50;5093596;28;20060;-88
2022/12/18 11:53:21;;;;;;;105.45;37.35;;;;;;;8.91;94.14;102524.63;5093468;28;20048;-88
2022/12/18 11:56:04;;;;;;;16.75;9.80;;;;;;;8.88;92.96;102530.53;5094645;28;20048;-88
2022/12/18 11:58:39;;;;;;;15.15;8.65;;;;;;;8.51;95.67;102528.38;5094413;28;20051;-88
2022/12/18 12:01:14;;;;;;;15.20;9.38;;;;;;;8.76;96.11;102516.75;5093548;28;20048;-88
2022/12/18 12:03:52;;;;;;;36.83;16.38;;;;;;;8.95;96.31;102512.19;5094559;28;20055;-88
2022/12/18 12:06:35;;;;;;;96.45;42.05;;;;;;;9.15;93.83;102522.16;5093294;28;20044;-88
2022/12/18 12:09:22;;;;;;;48.03;23.27;;;;;;;9.38;93.52;102521.53;5092466;28;20052;-87
2022/12/18 12:12:06;;;;;;;12.32;8.85;;;;;;;9.28;91.70;102524.75;5093312;28;20110;-88
2022/12/18 12:14:33;;;;;;;14.57;9.73;;;;;;;9.21;93.53;102534.06;5094187;28;20392;-87
2022/12/18 12:17:07;;;;;;;16.95;10.00;;;;;;;9.17;96.11;102521.91;5093964;28;20055;-87
2022/12/18 12:19:53;;;;;;;18.25;10.02;;;;;;;8.96;95.98;102526.69;5074879;28;20044;-85
2022/12/18 12:22:40;;;;;;;13.02;9.02;;;;;;;9.19;93.31;102519.81;5073721;28;20044;-83
2022/12/18 12:25:33;;;;;;;16.75;9.15;;;;;;;9.47;93.42;102518.50;5073351;28;20399;-83
2022/12/18 12:28:23;;;;;;;14.02;8.82;;;;;;;9.39;91.95;102520.47;5083818;28;20044;-83
2022/12/18 12:31:32;;;;;;;15.60;8.40;;;;;;;9.38;89.25;102513.31;5092485;28;20478;-83
2022/12/18 12:34:06;;;;;;;11.85;7.85;;;;;;;8.69;89.56;102510.47;5066576;28;20044;-83
2022/12/18 12:36:42;;;;;;;9.25;7.35;;;;;;;8.73;90.84;102507.13;5093519;28;20067;-82
2022/12/18 12:39:18;;;;;;;8.85;6.95;;;;;;;8.90;87.44;102522.94;5093401;28;20044;-86
2022/12/18 12:44:46;;;;;;;8.98;6.40;;;;;;;9.20;79.99;102511.41;5073720;28;20394;-87
2022/12/18 12:47:43;;;;;;;7.43;5.50;;;;;;;9.09;78.17;102506.66;5082480;28;20044;-87
2022/12/18 12:50:18;;;;;;;10.82;5.78;;;;;;;9.11;75.75;102508.09;5093768;28;20060;-88
2022/12/18 12:52:52;;;;;;;8.50;6.20;;;;;;;9.35;75.85;102510.22;5092260;28;20055;-87
2022/12/18 12:55:24;;;;;;;11.02;6.50;;;;;;;9.28;76.39;102510.25;5092125;28;20044;-87
2022/12/18 12:58:17;;;;;;;8.95;6.25;;;;;;;9.36;81.57;102510.00;5093230;28;20044;-88
2022/12/18 13:01:14;;;;;;;10.48;5.88;;;;;;;9.32;79.44;102506.03;5093407;28;20051;-87
2022/12/18 13:03:56;;;;;;;11.15;6.70;;;;;;;9.26;78.48;102504.19;5093233;28;20044;-87
2022/12/18 13:06:42;;;;;;;8.80;6.07;;;;;;;9.11;80.23;102499.91;5091825;28;20048;-87
2022/12/18 13:09:12;;;;;;;12.30;6.68;;;;;;;8.64;80.72;102496.69;5075575;28;20044;-88
2022/12/18 13:14:40;;;;;;;11.43;7.30;;;;;;;8.81;82.11;102497.78;5093165;28;20816;-88
2022/12/18 13:17:20;;;;;;;10.15;6.63;;;;;;;8.97;79.58;102490.13;5092401;28;20063;-87
2022/12/18 13:20:03;;;;;;;11.55;6.78;;;;;;;8.95;81.59;102484.06;5093332;28;20047;-86
2022/12/18 13:22:35;;;;;;;10.95;5.95;;;;;;;8.81;83.00;102478.69;5092447;28;20044;-87
2022/12/18 13:25:26;;;;;;;10.10;6.75;;;;;;;8.92;83.39;102485.34;5076881;28;20048;-87
2022/12/18 13:28:02;;;;;;;8.70;6.07;;;;;;;8.83;79.10;102486.66;5071315;28;20487;-87
2022/12/18 13:30:33;;;;;;;10.02;6.30;;;;;;;8.64;82.48;102483.03;5072608;28;20419;-87
2022/12/18 13:33:14;;;;;;;9.85;6.25;;;;;;;8.70;81.66;102491.16;5085710;28;20051;-87
2022/12/18 13:35:48;;;;;;;8.38;5.93;;;;;;;8.77;80.93;102482.94;5072300;28;20044;-87
2022/12/18 13:38:23;;;;;;;8.85;6.55;;;;;;;8.74;80.35;102486.09;5086895;28;20486;-89
2022/12/18 13:40:55;;;;;;;10.13;5.82;;;;;;;8.70;80.96;102479.44;5077458;28;20041;-86
2022/12/18 13:43:43;;;;;;;10.07;6.97;;;;;;;8.78;79.00;102490.06;5091481;28;20058;-86
2022/12/18 13:46:23;;;;;;;10.15;6.95;;;;;;;8.92;77.55;102488.09;5082645;28;20043;-87
2022/12/18 13:49:01;;;;;;;12.73;6.60;;;;;;;8.74;80.18;102476.03;5090815;28;20048;-85
2022/12/18 13:51:35;;;;;;;8.45;5.90;;;;;;;8.66;82.16;102489.91;5092703;28;20048;-88
2022/12/18 13:54:20;;;;;;;10.50;6.07;;;;;;;8.54;78.72;102489.78;5092344;28;20055;-86
2022/12/18 13:56:49;;;;;;;8.00;5.60;;;;;;;8.39;80.26;102489.22;5086276;28;20051;-88
2022/12/18 13:59:22;;;;;;;7.85;6.10;;;;;;;8.22;83.47;102495.19;5108013;28;20047;-88
2022/12/18 14:01:51;;;;;;;;;;;;;;;8.20;80.63;102489.94;5109462;28;20043;-87
2022/12/18 14:04:26;;;;;;;11.98;6.28;;;;;;;8.12;80.54;102500.25;5095990;28;20076;-85
2022/12/18 14:07:17;;;;;;;8.88;6.55;;;;;;;8.07;84.19;102477.19;5114645;27;20513;-86
2022/12/18 14:09:49;;;;;;;9.65;6.93;;;;;;;8.12;81.36;102483.91;5057112;28;20067;-87
2022/12/18 14:15:26;;;;;;;9.73;6.63;;;;;;;7.99;83.15;102476.59;5082935;28;20040;-87
2022/12/18 14:18:38;;;;;;;10.18;6.30;;;;;;;7.95;85.68;102484.38;5053870;28;20049;-86
2022/12/18 14:21:19;;;;;;;9.93;6.55;;;;;;;7.90;86.51;102495.06;5093497;28;20044;-87
2022/12/18 14:23:48;;;;;;;10.65;6.97;;;;;;;7.88;85.28;102483.56;5090856;28;20045;-87
2022/12/18 14:26:24;;;;;;;10.55;6.72;;;;;;;7.78;86.73;102478.56;5062646;28;20450;-87
2022/12/18 14:28:53;;;;;;;13.73;7.32;;;;;;;7.79;85.92;102475.59;5070197;28;20056;-88
2022/12/18 14:31:27;;;;;;;12.23;8.13;;;;;;;7.85;87.34;102462.16;5087300;28;20044;-87
2022/12/18 14:33:57;;;;;;;13.07;7.20;;;;;;;7.76;89.48;102473.31;5073954;28;20055;-86
2022/12/18 14:36:27;;;;;;;10.98;7.43;;;;;;;7.71;88.26;102473.13;5061738;28;20049;-87
2022/12/18 14:38:59;;;;;;;11.70;7.50;;;;;;;7.69;89.69;102472.50;5069966;28;20045;-87
2022/12/18 14:41:28;;;;;;;11.52;8.18;;;;;;;7.68;88.45;102479.00;5069452;28;20083;-87
2022/12/18 14:44:07;;;;;;;9.00;6.47;;;;;;;7.71;88.33;102486.75;5070389;28;20045;-88
2022/12/18 14:46:42;;;;;;;12.30;7.22;;;;;;;7.63;89.05;102482.34;5050189;28;20417;-84
2022/12/18 14:49:36;;;;;;;11.65;6.97;;;;;;;7.59;88.37;102492.03;5053545;28;20037;-86
2022/12/18 14:52:26;;;;;;;11.20;7.23;;;;;;;7.48;90.24;102484.50;5070600;28;20051;-87
2022/12/18 14:54:54;;;;;;;12.43;7.57;;;;;;;7.45;90.51;102490.34;5079805;28;20140;-88
2022/12/18 14:57:26;;;;;;;9.80;6.70;;;;;;;7.39;91.44;102497.50;5071935;28;20406;-88
2022/12/18 15:00:04;;;;;;;10.77;6.80;;;;;;;7.30;92.30;102504.19;5056572;28;20056;-86
2022/12/18 15:02:35;;;;;;;15.52;8.63;;;;;;;7.23;92.33;102504.19;5076147;28;20044;-87
2022/12/18 15:05:13;;;;;;;14.75;8.15;;;;;;;7.14;94.16;102514.47;5067811;28;20044;-86
2022/12/18 15:07:52;;;;;;;13.32;7.72;;;;;;;7.05;95.03;102508.41;5083382;28;20442;-86
2022/12/18 15:10:25;;;;;;;13.45;7.68;;;;;;;6.98;96.60;102505.66;5033328;28;20045;-86
2022/12/18 15:12:56;;;;;;;11.17;7.80;;;;;;;6.88;98.24;102510.66;5049801;28;20044;-87
2022/12/18 15:15:36;;;;;;;15.48;8.38;;;;;;;6.78;98.64;102518.41;5066374;28;20298;-87
2022/12/18 15:18:07;;;;;;;13.10;8.38;;;;;;;6.66;99.59;102524.47;5073797;28;20048;-86
2022/12/18 15:20:50;;;;;;;12.48;7.80;;;;;;;6.54;100.00;102517.91;5073138;28;20048;-86
2022/12/18 15:23:24;;;;;;;16.75;8.48;;;;;;;6.39;100.00;102509.91;5073530;28;20067;-88
2022/12/18 15:26:01;;;;;;;12.77;7.72;;;;;;;6.26;100.00;102517.00;5073106;28;20056;-87
2022/12/18 15:28:49;;;;;;;13.70;8.38;;;;;;;6.08;100.00;102514.84;5074068;28;20049;-86
2022/12/18 15:31:28;;;;;;;13.07;7.85;;;;;;;5.99;100.00;102521.44;5073556;28;20495;-88
2022/12/18 15:33:58;;;;;;;13.25;8.55;;;;;;;5.87;100.00;102534.75;5074425;28;20051;-89
2022/12/18 15:36:29;;;;;;;11.05;7.22;;;;;;;5.78;100.00;102531.38;5074344;28;20052;-87
2022/12/18 15:38:57;;;;;;;13.02;8.00;;;;;;;5.69;100.00;102529.81;5073297;28;20047;-87
2022/12/18 15:41:34;;;;;;;14.00;8.18;;;;;;;5.61;100.00;102534.38;5071547;28;20052;-88
2022/12/18 15:44:21;;;;;;;13.00;7.75;;;;;;;5.56;100.00;102536.00;5068139;28;20060;-88
2022/12/18 15:46:49;;;;;;;10.48;7.53;;;;;;;5.54;100.00;102544.38;5050595;28;20049;-84
2022/12/18 15:49:17;;;;;;;15.48;9.85;;;;;;;5.54;100.00;102552.50;5073490;28;20044;-89
2022/12/18 15:51:51;;;;;;;18.08;9.88;;;;;;;5.68;100.00;102558.88;5088710;28;20059;-89
2022/12/18 15:57:22;;;;;;;16.02;10.52;;;;;;;5.80;100.00;102556.44;5073988;28;20063;-89
2022/12/18 15:57:22;;;;;;;21.95;12.13;;;;;;;5.82;100.00;102548.09;5052621;28;20056;-89
2022/12/18 15:59:57;;;;;;;18.52;11.55;;;;;;;5.93;100.00;102547.53;5059170;28;20491;-88
2022/12/18 16:02:27;;;;;;;21.15;12.55;;;;;;;5.90;100.00;102561.53;5087113;28;20372;-89
2022/12/18 16:04:56;;;;;;;24.52;13.75;;;;;;;5.81;100.00;102554.59;5076113;28;20059;-89
2022/12/18 16:07:24;;;;;;;23.38;13.82;;;;;;;5.67;100.00;102550.94;5078117;28;20044;-89
2022/12/18 16:09:57;;;;;;;23.50;13.23;;;;;;;5.61;100.00;102555.25;5074753;28;20055;-89
2022/12/18 16:12:29;;;;;;;29.25;15.25;;;;;;;5.59;100.00;102558.19;5072434;28;20075;-90
2022/12/18 16:14:56;;;;;;;25.50;14.73;;;;;;;5.59;100.00;102557.34;5063628;28;20401;-90
2022/12/18 16:17:24;;;;;;;29.38;15.50;;;;;;;5.53;100.00;102566.28;5073489;28;20049;-89
2022/12/18 16:19:53;;;;;;;32.92;16.58;;;;;;;5.48;100.00;102562.28;5068568;28;20044;-88
2022/12/18 16:22:26;;;;;;;38.97;17.85;;;;;;;5.55;100.00;102564.19;5090406;28;20573;-89
2022/12/18 16:24:55;;;;;;;35.15;18.58;;;;;;;5.47;100.00;102573.34;5084792;28;20048;-89
2022/12/18 16:27:25;;;;;;;37.28;16.67;;;;;;;5.46;100.00;102577.06;5039784;28;20052;-88
2022/12/18 16:29:53;;;;;;;39.20;19.73;;;;;;;5.36;100.00;102580.13;5092537;28;20060;-88
2022/12/18 16:32:22;;;;;;;35.47;18.65;;;;;;;5.36;100.00;102582.84;5092715;28;20498;-88
2022/12/18 16:34:51;;;;;;;36.45;20.55;;;;;;;5.33;100.00;102573.22;5097585;28;20486;-88
2022/12/18 16:37:19;;;;;;;38.63;20.17;;;;;;;5.30;100.00;102579.06;5089851;28;20041;-89
2022/12/18 16:39:47;;;;;;;38.60;21.52;;;;;;;5.29;100.00;102580.09;5081839;28;20052;-88
2022/12/18 16:42:18;;;;;;;39.97;22.85;;;;;;;5.19;100.00;102576.84;5083440;28;20110;-88
2022/12/18 16:44:48;;;;;;;42.60;24.20;;;;;;;5.15;100.00;102583.69;5084018;28;20066;-89
2022/12/18 16:47:17;;;;;;;38.90;22.52;;;;;;;5.09;100.00;102583.44;5080894;28;20036;-88
2022/12/18 16:49:46;;;;;;;43.33;22.48;;;;;;;5.02;100.00;102582.53;5086500;28;20405;-88
2022/12/18 16:52:14;;;;;;;38.03;21.60;;;;;;;4.92;100.00;102576.56;5090521;28;20040;-89
2022/12/18 16:54:42;;;;;;;31.67;18.85;;;;;;;4.88;100.00;102581.53;5079760;28;20064;-88
2022/12/18 16:57:13;;;;;;;35.05;18.17;;;;;;;4.83;100.00;102565.84;5072989;28;20036;-88
2022/12/18 16:59:42;;;;;;;33.10;18.48;;;;;;;4.81;100.00;102584.22;5074614;28;20048;-89
2022/12/18 17:02:29;;;;;;;32.85;18.33;;;;;;;4.74;100.00;102569.69;5067232;28;20048;-89
2022/12/18 17:04:58;;;;;;;33.85;17.80;;;;;;;4.71;100.00;102575.53;5093129;28;20046;-89
2022/12/18 17:07:27;;;;;;;30.73;16.70;;;;;;;4.66;100.00;102575.25;5088289;28;20509;-89
2022/12/18 17:09:55;;;;;;;37.95;21.42;;;;;;;4.67;100.00;102585.06;5086236;28;20045;-89
2022/12/18 17:12:23;;;;;;;39.08;22.58;;;;;;;4.63;100.00;102579.19;5074995;28;20041;-89
2022/12/18 17:14:51;;;;;;;40.08;21.40;;;;;;;4.64;100.00;102591.72;5079487;28;20047;-89
2022/12/18 17:17:19;;;;;;;37.53;21.45;;;;;;;4.56;100.00;102595.38;5075286;28;20040;-89
2022/12/18 17:19:51;;;;;;;34.25;20.35;;;;;;;4.53;100.00;102584.91;5067693;28;20044;-83
2022/12/18 17:22:22;;;;;;;38.47;20.75;;;;;;;4.44;100.00;102591.47;5084211;28;20043;-82
2022/12/18 17:24:51;;;;;;;38.25;18.58;;;;;;;4.44;100.00;102592.31;5084422;28;20047;-83
2022/12/18 17:27:19;;;;;;;32.22;18.65;;;;;;;4.34;100.00;102591.75;5080931;28;20040;-81
2022/12/18 17:29:47;;;;;;;33.50;19.10;;;;;;;4.38;100.00;102594.94;5077277;28;20506;-81
2022/12/18 17:32:17;;;;;;;32.88;18.98;;;;;;;4.30;100.00;102596.72;5072380;28;20070;-81
2022/12/18 17:34:45;;;;;;;33.33;18.02;;;;;;;4.29;100.00;102595.03;5081505;28;20048;-81
2022/12/18 17:37:14;;;;;;;32.45;18.50;;;;;;;4.34;100.00;102607.19;5076638;28;20399;-80
2022/12/18 17:39:42;;;;;;;32.75;18.80;;;;;;;4.47;100.00;102606.50;5088065;28;20044;-83
2022/12/18 17:42:10;;;;;;;33.42;18.20;;;;;;;4.37;100.00;102598.66;5085197;28;20040;-82
2022/12/18 17:44:43;;;;;;;32.83;18.27;;;;;;;4.36;100.00;102599.72;5075298;28;20036;-83
2022/12/18 17:47:14;;;;;;;32.25;17.13;;;;;;;4.23;100.00;102606.63;5073770;28;20051;-82
2022/12/18 17:49:42;;;;;;;26.85;15.95;;;;;;;4.18;100.00;102592.78;5071564;28;20713;-82
2022/12/18 17:52:10;;;;;;;25.27;15.40;;;;;;;4.12;100.00;102607.09;5080091;28;20491;-81
2022/12/18 17:54:40;;;;;;;24.27;14.88;;;;;;;4.06;100.00;102600.53;5080414;28;20041;-81
2022/12/18 17:57:09;;;;;;;24.25;13.82;;;;;;;4.07;100.00;102606.81;5083313;28;20071;-78
2022/12/18 17:59:37;;;;;;;23.98;13.63;;;;;;;4.08;100.00;102593.06;5072626;28;20036;-82
2022/12/18 18:02:05;;;;;;;30.95;15.40;;;;;;;4.15;100.00;102601.28;5076069;28;20047;-81
2022/12/18 18:04:33;;;;;;;35.20;18.98;;;;;;;4.08;100.00;102593.06;5088192;28;20474;-81
2022/12/18 18:07:01;;;;;;;31.95;17.48;;;;;;;3.96;100.00;102608.94;5090567;28;20043;-82
2022/12/18 18:09:32;;;;;;;23.55;14.13;;;;;;;3.83;100.00;102608.75;5082263;28;20036;-81
2022/12/18 18:14:46;;;;;;;22.55;13.80;;;;;;;3.70;100.00;102617.47;5081482;28;20051;-83
2022/12/18 18:17:14;;;;;;;27.80;14.23;;;;;;;3.68;100.00;102624.97;5080427;28;20047;-83
2022/12/18 18:19:43;;;;;;;21.23;13.02;;;;;;;3.62;100.00;102629.25;5070859;28;20562;-83
2022/12/18 18:22:16;;;;;;;24.60;13.13;;;;;;;3.52;100.00;102631.38;5071847;28;20048;-84
2022/12/18 18:24:45;;;;;;;21.55;12.15;;;;;;;3.46;100.00;102633.75;5083628;28;20036;-83
2022/12/18 18:27:14;;;;;;;25.27;11.93;;;;;;;3.39;100.00;102627.41;5085882;28;20505;-83
2022/12/18 18:29:42;;;;;;;16.15;10.68;;;;;;;3.35;100.00;102615.25;5091935;28;20795;-84
2022/12/18 18:32:10;;;;;;;19.13;11.63;;;;;;;3.27;100.00;102618.84;5091057;28;20486;-84
2022/12/18 18:34:38;;;;;;;18.35;11.95;;;;;;;3.31;100.00;102614.75;5089400;28;20048;-84
2022/12/18 18:37:06;;;;;;;15.98;10.82;;;;;;;3.25;100.00;102603.81;5085371;28;20040;-84
2022/12/18 18:39:38;;;;;;;18.52;10.63;;;;;;;3.27;100.00;102607.19;5083209;28;20048;-83
2022/12/18 18:42:14;;;;;;;19.98;11.55;;;;;;;3.25;100.00;102615.50;5087364;28;20398;-86
2022/12/18 18:44:42;;;;;;;19.35;10.68;;;;;;;3.21;100.00;102606.88;5084991;28;20032;-85
2022/12/18 18:47:15;;;;;;;18.98;10.65;;;;;;;3.11;100.00;102600.88;5086004;28;20048;-82
2022/12/18 18:49:43;;;;;;;18.02;11.20;;;;;;;3.11;100.00;102608.97;5091389;28;20048;-83
2022/12/18 18:52:11;;;;;;;16.13;10.27;;;;;;;3.01;100.00;102609.22;5088410;28;20079;-82
2022/12/18 18:54:39;;;;;;;17.85;11.93;;;;;;;2.98;100.00;102603.34;5092618;28;20044;-82
2022/12/18 18:57:27;;;;;;;20.02;12.43;;;;;;;2.94;100.00;102605.56;5085560;28;20692;-82
2022/12/18 18:59:57;;;;;;;18.67;11.40;;;;;;;2.83;100.00;102606.78;5089253;28;20067;-82
2022/12/18 19:02:25;;;;;;;21.92;11.90;;;;;;;2.88;100.00;102612.50;5091389;28;20051;-82
2022/12/18 19:04:53;;;;;;;18.85;11.50;;;;;;;2.91;100.00;102617.56;5090772;28;20047;-82
2022/12/18 19:07:22;;;;;;;21.67;12.02;;;;;;;2.91;100.00;102614.88;5092446;28;20040;-82
2022/12/18 19:09:59;;;;;;;22.38;12.05;;;;;;;2.89;100.00;102610.66;5080175;28;20041;-82
2022/12/18 19:15:21;;;;;;;26.27;13.85;;;;;;;2.82;100.00;102619.47;5087391;28;20067;-82
2022/12/18 19:17:49;;;;;;;28.27;14.55;;;;;;;2.82;100.00;102626.72;5090502;28;20047;-82
2022/12/18 19:20:17;;;;;;;27.33;13.15;;;;;;;2.77;100.00;102629.97;5087951;28;20043;-82
2022/12/18 19:22:45;;;;;;;26.10;13.35;;;;;;;2.78;100.00;102625.41;5086593;28;20055;-81
2022/12/18 19:25:27;;;;;;;23.58;12.93;;;;;;;2.67;100.00;102611.28;5080728;28;20410;-83
2022/12/18 19:28:08;;;;;;;23.25;13.48;;;;;;;2.67;100.00;102627.50;5089626;28;20616;-82
2022/12/18 19:30:50;;;;;;;20.88;12.55;;;;;;;2.57;100.00;102617.91;5081569;28;20115;-83
2022/12/18 19:33:31;;;;;;;22.85;12.95;;;;;;;2.61;100.00;102622.78;5083204;28;20057;-83
2022/12/18 19:36:25;;;;;;;26.25;13.25;;;;;;;2.52;100.00;102621.13;5074520;28;20045;-83
2022/12/18 19:38:57;;;;;;;21.60;13.00;;;;;;;2.51;100.00;102619.44;5073146;28;20040;-83
2022/12/18 19:41:26;;;;;;;26.10;14.38;;;;;;;2.42;100.00;102614.09;5074665;28;20045;-83
2022/12/18 19:43:58;;;;;;;36.05;16.75;;;;;;;2.47;100.00;102623.50;5074332;28;20041;-83
2022/12/18 19:46:26;;;;;;;26.40;14.45;;;;;;;2.57;100.00;102639.53;5089564;28;20410;-82
2022/12/18 19:48:54;;;;;;;30.55;15.48;;;;;;;2.48;100.00;102625.19;5077801;28;20427;-83
2022/12/18 19:51:24;;;;;;;26.10;14.55;;;;;;;2.54;100.00;102629.94;5073268;28;20079;-82
2022/12/18 19:53:53;;;;;;;24.80;14.23;;;;;;;2.49;100.00;102626.91;5075905;28;20407;-84
2022/12/18 19:56:30;;;;;;;25.70;13.95;;;;;;;2.48;100.00;102630.59;5074190;28;20059;-80
2022/12/18 19:58:59;;;;;;;30.05;15.30;;;;;;;2.45;100.00;102622.84;5075545;28;20037;-82
2022/12/18 20:01:29;;;;;;;26.15;14.32;;;;;;;2.44;100.00;102632.81;5087392;28;20048;-82
2022/12/18 20:03:57;;;;;;;24.92;13.07;;;;;;;2.38;100.00;102631.66;5082028;28;20390;-82
2022/12/18 20:06:35;;;;;;;23.42;14.15;;;;;;;2.37;100.00;102643.50;5084846;28;20051;-82
2022/12/18 20:09:05;;;;;;;21.02;12.57;;;;;;;2.27;100.00;102629.34;5077418;28;20051;-83
2022/12/18 20:11:34;;;;;;;22.27;13.00;;;;;;;2.31;100.00;102640.63;5082215;28;20394;-82
2022/12/18 20:14:10;;;;;;;21.73;13.60;;;;;;;2.35;100.00;102650.91;5088844;28;20067;-82
2022/12/18 20:16:39;;;;;;;23.42;14.50;;;;;;;2.40;100.00;102658.53;5080715;28;20051;-82
2022/12/18 20:19:09;;;;;;;26.80;13.98;;;;;;;2.32;100.00;102663.94;5091090;28;20036;-82
2022/12/18 20:21:37;;;;;;;27.98;15.52;;;;;;;2.35;100.00;102661.72;5089619;28;20051;-82
2022/12/18 20:24:07;;;;;;;32.05;18.10;;;;;;;2.24;100.00;102662.94;5083757;28;20044;-82
2022/12/18 20:26:35;;;;;;;35.53;18.17;;;;;;;2.18;100.00;102673.56;5079338;28;20513;-82
2022/12/18 20:29:04;;;;;;;37.42;20.77;;;;;;;2.15;100.00;102674.75;5076999;28;20047;-82
2022/12/18 20:31:32;;;;;;;36.55;20.92;;;;;;;2.28;100.00;102685.91;5086557;28;20048;-81
2022/12/18 20:34:00;;;;;;;37.30;20.50;;;;;;;2.18;100.00;102684.38;5085287;28;20044;-82
2022/12/18 20:36:32;;;;;;;38.60;21.00;;;;;;;2.13;100.00;102672.25;5086146;28;20475;-82
2022/12/18 20:39:04;;;;;;;42.53;20.38;;;;;;;2.12;100.00;102667.88;5087085;28;20111;-82
2022/12/18 20:41:36;;;;;;;36.80;20.17;;;;;;;2.13;100.00;102668.69;5079097;28;20048;-82
2022/12/18 20:44:07;;;;;;;40.70;21.50;;;;;;;1.99;100.00;102670.22;5073948;28;20048;-82
2022/12/18 20:46:52;;;;;;;34.67;19.58;;;;;;;1.86;100.00;102668.91;5078930;28;20410;-82
2022/12/18 20:49:23;;;;;;;37.55;21.05;;;;;;;1.79;100.00;102667.88;5073360;28;20067;-83
2022/12/18 20:51:56;;;;;;;36.22;20.17;;;;;;;1.73;100.00;102668.56;5073933;28;20049;-85
2022/12/18 20:54:26;;;;;;;34.28;18.52;;;;;;;1.69;100.00;102676.16;5073680;28;20040;-84
2022/12/18 20:56:55;;;;;;;33.72;19.33;;;;;;;1.65;100.00;102671.28;5081455;28;20040;-79
2022/12/18 20:59:24;;;;;;;33.20;19.67;;;;;;;1.70;100.00;102679.69;5073038;28;20040;-83
2022/12/18 21:01:52;;;;;;;33.70;18.27;;;;;;;1.66;100.00;102681.06;5074308;28;20415;-83
2022/12/18 21:04:21;;;;;;;35.38;19.48;;;;;;;1.66;100.00;102686.47;5085142;28;20040;-83
2022/12/18 21:06:50;;;;;;;40.95;20.17;;;;;;;1.63;100.00;102693.03;5080884;28;20045;-83
2022/12/18 21:09:24;;;;;;;32.53;19.65;;;;;;;1.59;100.00;102689.84;5077992;28;20040;-83
2022/12/18 21:14:41;;;;;;;31.63;18.38;;;;;;;1.54;100.00;102707.50;5073076;28;20041;-83
2022/12/18 21:17:10;;;;;;;31.00;19.48;;;;;;;1.55;100.00;102707.34;5077561;28;20055;-83
2022/12/18 21:19:38;;;;;;;36.45;19.35;;;;;;;1.47;100.00;102710.88;5078097;28;20040;-83
2022/12/18 21:22:08;;;;;;;32.78;19.08;;;;;;;1.46;100.00;102708.34;5088972;28;20478;-83
2022/12/18 21:24:36;;;;;;;32.28;19.38;;;;;;;1.37;100.00;102712.88;5091552;28;20052;-82
2022/12/18 21:27:04;;;;;;;31.45;19.05;;;;;;;1.30;100.00;102701.91;5085125;28;20042;-83
2022/12/18 21:29:33;;;;;;;30.17;17.55;;;;;;;1.31;100.00;102694.66;5086279;28;20731;-83
2022/12/18 21:32:03;;;;;;;30.70;19.02;;;;;;;1.38;100.00;102705.63;5087681;28;20406;-83
2022/12/18 21:34:32;;;;;;;33.05;18.90;;;;;;;1.37;100.00;102703.97;5086005;28;20044;-83
2022/12/18 21:37:01;;;;;;;36.22;19.52;;;;;;;1.37;100.00;102706.66;5086552;28;20052;-83
2022/12/18 21:39:29;;;;;;;33.72;19.20;;;;;;;1.32;100.00;102697.19;5086329;28;20490;-83
2022/12/18 21:44:47;;;;;;;29.52;18.33;;;;;;;1.34;100.00;102702.44;5092090;28;20287;-83
2022/12/18 21:47:15;;;;;;;31.83;17.67;;;;;;;1.30;100.00;102699.22;5088157;28;20047;-83
2022/12/18 21:49:51;;;;;;;31.70;18.33;;;;;;;1.37;100.00;102706.66;5092640;28;20039;-83
2022/12/18 21:52:21;;;;;;;37.55;20.05;;;;;;;1.34;100.00;102699.75;5092375;28;20044;-83
2022/12/18 21:55:02;;;;;;;33.35;20.30;;;;;;;1.29;100.00;102689.44;5084048;28;20044;-83
2022/12/18 21:57:38;;;;;;;35.47;20.00;;;;;;;1.33;100.00;102696.19;5088670;28;20059;-83
2022/12/18 22:00:10;;;;;;;33.13;18.98;;;;;;;1.41;100.00;102698.06;5091853;28;20040;-83
2022/12/18 22:02:47;;;;;;;33.50;21.02;;;;;;;1.54;100.00;102692.19;5090417;28;20060;-83
2022/12/18 22:05:35;;;;;;;44.28;27.83;;;;;;;1.40;100.00;102688.28;5091200;28;20051;-83
2022/12/18 22:08:03;;;;;;;46.85;26.58;;;;;;;1.33;100.00;102688.09;5098969;28;20040;-83
2022/12/18 22:10:32;;;;;;;39.63;21.98;;;;;;;1.27;100.00;102696.84;5092291;28;20044;-83
2022/12/18 22:13:00;;;;;;;36.30;22.08;;;;;;;1.23;100.00;102700.91;5092596;28;20470;-82
2022/12/18 22:15:28;;;;;;;38.88;21.63;;;;;;;1.16;100.00;102689.06;5091027;28;20036;-82
2022/12/18 22:17:56;;;;;;;37.80;23.02;;;;;;;1.20;100.00;102695.81;5088206;28;20066;-83
2022/12/18 22:20:28;;;;;;;35.05;21.70;;;;;;;1.20;100.00;102704.78;5103071;27;20043;-86
2022/12/18 22:22:57;;;;;;;34.78;21.10;;;;;;;1.18;100.00;102708.63;5092172;28;20048;-83
2022/12/18 22:25:27;;;;;;;33.70;19.70;;;;;;;1.11;100.00;102710.31;5097486;28;20043;-83
2022/12/18 22:30:42;;;;;;;33.88;20.95;;;;;;;0.97;100.00;102707.22;5091904;28;20044;-83
2022/12/18 22:33:10;;;;;;;35.80;21.10;;;;;;;0.99;100.00;102705.22;5091922;28;20494;-83
2022/12/18 22:35:38;;;;;;;37.05;20.48;;;;;;;0.99;100.00;102697.13;5091926;28;20052;-83
2022/12/18 22:38:06;;;;;;;34.72;19.77;;;;;;;0.96;100.00;102685.78;5093202;28;20505;-83
2022/12/18 22:40:34;;;;;;;32.22;19.20;;;;;;;1.01;100.00;102700.50;5090839;28;20387;-83
2022/12/18 22:43:02;;;;;;;39.42;20.67;;;;;;;0.99;100.00;102699.81;5092373;28;20036;-83